BSC4002 VMMC-VOHS
Flight info
| Callsign | BSC4002 |
|---|---|
| Flight time | N/A |
| Altitude | 36100 |
| Route | BIGRO R200 LH R339 BSE A599 LXI W148 XSJ W146 GULOT A599 LINSO/N0497F380 A599 CTG B465 CEA Q11 SURUP W41 ANBAS VITUR8 |
| Aircraft | B742/H-SDFHIRWXY/L |
Departure
| Time | 2026-05-04 08:40 |
|---|---|
| Airport | Macau International Airport (VMMC) |
Arrival
| Time | N/A |
|---|---|
| Airport | Rajiv Gandhi International Airport (VOHS) |
| Time | Latitude | Longitude | Altitude | Speed | Heading |
|---|---|---|---|---|---|
| 2026-05-04 07:52 | 22.15456 | 113.57469 | 19 ft | 0 kts | 153° |
| 2026-05-04 08:22 | 22.15464 | 113.57465 | 19 ft | 2 kts | 153° |
| 2026-05-04 08:22 | 22.15477 | 113.57458 | 19 ft | 2 kts | 153° |
| 2026-05-04 08:24 | 22.15509 | 113.57372 | 23 ft | 2 kts | 59° |
| 2026-05-04 08:24 | 22.15502 | 113.57358 | 23 ft | 2 kts | 62° |
| 2026-05-04 08:24 | 22.15498 | 113.57352 | 23 ft | 0 kts | 62° |
| 2026-05-04 08:24 | 22.15499 | 113.57352 | 23 ft | 0 kts | 62° |
| 2026-05-04 08:29 | 22.15504 | 113.57362 | 23 ft | 2 kts | 62° |
| 2026-05-04 08:29 | 22.15514 | 113.57383 | 22 ft | 3 kts | 62° |
| 2026-05-04 08:31 | 22.15485 | 113.57809 | 14 ft | 18 kts | 123° |
| 2026-05-04 08:33 | 22.15078 | 113.58470 | 11 ft | 15 kts | 123° |
| 2026-05-04 08:33 | 22.15015 | 113.58576 | 11 ft | 17 kts | 124° |
| 2026-05-04 08:35 | 22.14538 | 113.59103 | 14 ft | 10 kts | 162° |
| 2026-05-04 08:35 | 22.14461 | 113.59130 | 14 ft | 12 kts | 162° |
| 2026-05-04 08:35 | 22.14373 | 113.59161 | 14 ft | 14 kts | 162° |
| 2026-05-04 08:35 | 22.14272 | 113.59199 | 14 ft | 16 kts | 160° |
| 2026-05-04 08:37 | 22.13566 | 113.59468 | 12 ft | 11 kts | 134° |
| 2026-05-04 08:37 | 22.13522 | 113.59530 | 12 ft | 9 kts | 124° |
| 2026-05-04 08:37 | 22.13496 | 113.59580 | 13 ft | 6 kts | 105° |
| 2026-05-04 08:38 | 22.13496 | 113.59615 | 14 ft | 3 kts | 72° |
| 2026-05-04 08:38 | 22.13501 | 113.59628 | 14 ft | 0 kts | 63° |
| 2026-05-04 08:38 | 22.13509 | 113.59642 | 14 ft | 4 kts | 50° |
| 2026-05-04 08:40 | 22.15115 | 113.59074 | 15 ft | 151 kts | 341° |
| 2026-05-04 08:40 | 22.16185 | 113.58669 | 233 ft | 167 kts | 341° |
| 2026-05-04 08:40 | 22.17264 | 113.58302 | 675 ft | 161 kts | 358° |
| 2026-05-04 08:41 | 22.18305 | 113.58609 | 975 ft | 160 kts | 40° |
| 2026-05-04 08:41 | 22.19236 | 113.59277 | 1364 ft | 163 kts | 25° |
| 2026-05-04 08:41 | 22.20343 | 113.59604 | 1685 ft | 171 kts | 19° |
| 2026-05-04 08:41 | 22.21457 | 113.60008 | 1947 ft | 177 kts | 23° |
| 2026-05-04 08:42 | 22.22623 | 113.60452 | 2099 ft | 174 kts | 23° |
| 2026-05-04 08:42 | 22.23758 | 113.60885 | 2236 ft | 170 kts | 22° |
| 2026-05-04 08:42 | 22.24815 | 113.61427 | 2279 ft | 168 kts | 45° |
| 2026-05-04 08:42 | 22.25651 | 113.62180 | 2327 ft | 169 kts | 40° |
| 2026-05-04 08:43 | 22.26574 | 113.62968 | 2376 ft | 179 kts | 41° |